Amboy, California
Current Conditions -  °F | °C
As of 3:56 PM on Saturday 25 Oct 2014 (Local Time) from KNXP Reporting Station
Few Clouds Few Clouds  
Wind Chill: 86°   Ceiling: Unl
Heat Index: 86°   Visibility: 10mi
Dew Point: 44°   Wind: 12mph
Humidity: 23%   Direction: 210°SSW
Pressure: 30.03"   Gusts: NA
Location:  34.56°N, 115.75°W
Report Text: KNXP 252256Z 21010KT 10SM FEW080 FEW120 30/07 A3003 RMK AO2 SLP137 T03000067
Loading
Personal Weather Stations






























Interactive Weather Map New forecast layout! Learn more

10-Day Weather Forecast

Advertisements
Track Severe Weather on mobile